sensor_id;sensor_type;location;lat;lon;timestamp;P1;durP1;ratioP1;P2;durP2;ratioP2
67757;SDS011;54562;47.620;18.786;2022-10-31T00:00:03;70.50;;;17.30;;
67757;SDS011;54562;47.620;18.786;2022-10-31T00:03:13;79.80;;;16.60;;
67757;SDS011;54562;47.620;18.786;2022-10-31T00:06:21;80.70;;;17.00;;
67757;SDS011;54562;47.620;18.786;2022-10-31T00:09:31;143.70;;;18.60;;
67757;SDS011;54562;47.620;18.786;2022-10-31T00:12:38;168.70;;;19.70;;
67757;SDS011;54562;47.620;18.786;2022-10-31T00:15:47;186.70;;;19.30;;
67757;SDS011;54562;47.620;18.786;2022-10-31T00:18:57;175.50;;;19.60;;
67757;SDS011;54562;47.620;18.786;2022-10-31T00:22:07;147.60;;;19.80;;
67757;SDS011;54562;47.620;18.786;2022-10-31T00:25:16;172.70;;;20.40;;
67757;SDS011;54562;47.620;18.786;2022-10-31T00:28:25;190.10;;;20.20;;
67757;SDS011;54562;47.620;18.786;2022-10-31T00:31:35;171.70;;;21.20;;
67757;SDS011;54562;47.620;18.786;2022-10-31T00:34:43;145.30;;;20.20;;
67757;SDS011;54562;47.620;18.786;2022-10-31T00:37:51;163.70;;;18.40;;
67757;SDS011;54562;47.620;18.786;2022-10-31T00:41:00;104.80;;;18.70;;
67757;SDS011;54562;47.620;18.786;2022-10-31T00:44:07;131.40;;;19.30;;
67757;SDS011;54562;47.620;18.786;2022-10-31T00:47:15;113.80;;;17.20;;
67757;SDS011;54562;47.620;18.786;2022-10-31T00:50:24;51.30;;;17.60;;
67757;SDS011;54562;47.620;18.786;2022-10-31T00:53:32;99.20;;;17.00;;
67757;SDS011;54562;47.620;18.786;2022-10-31T00:56:40;52.60;;;16.30;;
67757;SDS011;54562;47.620;18.786;2022-10-31T00:59:48;117.50;;;18.40;;
67757;SDS011;54562;47.620;18.786;2022-10-31T01:02:57;104.00;;;17.10;;
67757;SDS011;54562;47.620;18.786;2022-10-31T01:06:08;102.90;;;17.20;;
67757;SDS011;54562;47.620;18.786;2022-10-31T01:09:18;103.50;;;17.20;;
67757;SDS011;54562;47.620;18.786;2022-10-31T01:12:26;81.50;;;17.20;;
67757;SDS011;54562;47.620;18.786;2022-10-31T01:15:34;93.00;;;16.30;;
67757;SDS011;54562;47.620;18.786;2022-10-31T01:18:42;46.80;;;14.30;;
67757;SDS011;54562;47.620;18.786;2022-10-31T01:21:51;37.40;;;13.00;;
67757;SDS011;54562;47.620;18.786;2022-10-31T01:25:02;28.60;;;13.60;;
67757;SDS011;54562;47.620;18.786;2022-10-31T01:28:12;31.30;;;13.50;;
67757;SDS011;54562;47.620;18.786;2022-10-31T01:31:22;30.50;;;13.60;;
67757;SDS011;54562;47.620;18.786;2022-10-31T01:34:32;26.80;;;13.60;;
67757;SDS011;54562;47.620;18.786;2022-10-31T01:37:40;37.30;;;13.30;;
67757;SDS011;54562;47.620;18.786;2022-10-31T01:40:48;25.60;;;13.10;;
67757;SDS011;54562;47.620;18.786;2022-10-31T01:43:58;33.60;;;13.40;;
67757;SDS011;54562;47.620;18.786;2022-10-31T01:47:11;36.50;;;14.00;;
67757;SDS011;54562;47.620;18.786;2022-10-31T01:50:28;28.10;;;14.50;;
67757;SDS011;54562;47.620;18.786;2022-10-31T01:53:40;27.10;;;12.50;;
67757;SDS011;54562;47.620;18.786;2022-10-31T01:56:52;67.50;;;13.70;;
67757;SDS011;54562;47.620;18.786;2022-10-31T02:00:07;45.00;;;13.50;;
67757;SDS011;54562;47.620;18.786;2022-10-31T02:03:17;42.80;;;13.80;;
67757;SDS011;54562;47.620;18.786;2022-10-31T02:06:35;30.20;;;13.80;;
67757;SDS011;54562;47.620;18.786;2022-10-31T02:09:52;34.80;;;12.90;;
67757;SDS011;54562;47.620;18.786;2022-10-31T02:13:05;132.70;;;14.20;;
67757;SDS011;54562;47.620;18.786;2022-10-31T02:16:17;151.20;;;13.10;;
67757;SDS011;54562;47.620;18.786;2022-10-31T02:19:34;102.70;;;12.90;;
67757;SDS011;54562;47.620;18.786;2022-10-31T02:23:06;76.40;;;12.60;;
67757;SDS011;54562;47.620;18.786;2022-10-31T02:26:52;84.60;;;12.30;;
67757;SDS011;54562;47.620;18.786;2022-10-31T02:30:12;71.30;;;11.30;;
67757;SDS011;54562;47.620;18.786;2022-10-31T02:33:26;89.90;;;11.70;;
67757;SDS011;54562;47.620;18.786;2022-10-31T02:36:46;107.70;;;12.30;;
67757;SDS011;54562;47.620;18.786;2022-10-31T02:40:10;38.40;;;10.00;;
67757;SDS011;54562;47.620;18.786;2022-10-31T02:43:29;99.50;;;12.60;;
67757;SDS011;54562;47.620;18.786;2022-10-31T02:46:47;68.20;;;10.30;;
67757;SDS011;54562;47.620;18.786;2022-10-31T02:50:11;43.70;;;9.60;;
67757;SDS011;54562;47.620;18.786;2022-10-31T02:53:35;37.60;;;9.60;;
67757;SDS011;54562;47.620;18.786;2022-10-31T02:56:44;93.70;;;9.60;;
67757;SDS011;54562;47.620;18.786;2022-10-31T02:59:56;113.40;;;10.90;;
67757;SDS011;54562;47.620;18.786;2022-10-31T03:03:10;132.90;;;11.30;;
67757;SDS011;54562;47.620;18.786;2022-10-31T03:06:32;70.00;;;9.80;;
67757;SDS011;54562;47.620;18.786;2022-10-31T03:09:45;98.40;;;10.40;;
67757;SDS011;54562;47.620;18.786;2022-10-31T03:13:07;119.80;;;11.40;;
67757;SDS011;54562;47.620;18.786;2022-10-31T03:16:26;54.70;;;9.60;;
67757;SDS011;54562;47.620;18.786;2022-10-31T03:19:49;84.80;;;10.30;;
67757;SDS011;54562;47.620;18.786;2022-10-31T03:23:02;82.90;;;10.70;;
67757;SDS011;54562;47.620;18.786;2022-10-31T03:26:16;42.60;;;9.60;;
67757;SDS011;54562;47.620;18.786;2022-10-31T03:29:30;77.50;;;10.20;;
67757;SDS011;54562;47.620;18.786;2022-10-31T03:32:43;49.90;;;9.10;;
67757;SDS011;54562;47.620;18.786;2022-10-31T03:35:57;85.90;;;10.10;;
67757;SDS011;54562;47.620;18.786;2022-10-31T03:39:11;82.20;;;10.80;;
67757;SDS011;54562;47.620;18.786;2022-10-31T03:42:25;46.10;;;9.70;;
67757;SDS011;54562;47.620;18.786;2022-10-31T03:45:41;43.00;;;10.00;;
67757;SDS011;54562;47.620;18.786;2022-10-31T03:48:51;22.60;;;9.40;;
67757;SDS011;54562;47.620;18.786;2022-10-31T03:52:04;26.80;;;9.30;;
67757;SDS011;54562;47.620;18.786;2022-10-31T03:55:22;20.90;;;9.70;;
67757;SDS011;54562;47.620;18.786;2022-10-31T03:58:36;16.90;;;10.10;;
67757;SDS011;54562;47.620;18.786;2022-10-31T04:01:55;19.80;;;10.30;;
67757;SDS011;54562;47.620;18.786;2022-10-31T04:05:09;28.20;;;11.00;;
67757;SDS011;54562;47.620;18.786;2022-10-31T04:08:24;20.60;;;10.00;;
67757;SDS011;54562;47.620;18.786;2022-10-31T04:11:38;21.30;;;10.60;;
67757;SDS011;54562;47.620;18.786;2022-10-31T04:14:51;23.70;;;10.40;;
67757;SDS011;54562;47.620;18.786;2022-10-31T04:18:11;27.40;;;11.30;;
67757;SDS011;54562;47.620;18.786;2022-10-31T04:21:34;23.10;;;11.20;;
67757;SDS011;54562;47.620;18.786;2022-10-31T04:24:49;30.80;;;12.10;;
67757;SDS011;54562;47.620;18.786;2022-10-31T04:27:58;29.70;;;12.40;;
67757;SDS011;54562;47.620;18.786;2022-10-31T04:31:08;27.60;;;11.80;;
67757;SDS011;54562;47.620;18.786;2022-10-31T04:34:17;34.40;;;11.80;;
67757;SDS011;54562;47.620;18.786;2022-10-31T04:37:26;21.80;;;11.30;;
67757;SDS011;54562;47.620;18.786;2022-10-31T04:40:36;42.90;;;12.70;;
67757;SDS011;54562;47.620;18.786;2022-10-31T04:43:44;36.10;;;12.20;;
67757;SDS011;54562;47.620;18.786;2022-10-31T04:46:53;27.60;;;12.20;;
67757;SDS011;54562;47.620;18.786;2022-10-31T04:50:03;30.20;;;12.30;;
67757;SDS011;54562;47.620;18.786;2022-10-31T04:53:22;26.90;;;10.70;;
67757;SDS011;54562;47.620;18.786;2022-10-31T04:56:44;26.60;;;11.90;;
67757;SDS011;54562;47.620;18.786;2022-10-31T04:59:51;19.00;;;10.30;;
67757;SDS011;54562;47.620;18.786;2022-10-31T05:03:00;20.40;;;11.40;;
67757;SDS011;54562;47.620;18.786;2022-10-31T05:06:09;21.20;;;11.50;;
67757;SDS011;54562;47.620;18.786;2022-10-31T05:09:17;18.80;;;10.20;;
67757;SDS011;54562;47.620;18.786;2022-10-31T05:12:25;20.50;;;10.30;;
67757;SDS011;54562;47.620;18.786;2022-10-31T05:15:34;25.10;;;11.20;;
67757;SDS011;54562;47.620;18.786;2022-10-31T05:18:42;28.50;;;10.50;;
67757;SDS011;54562;47.620;18.786;2022-10-31T05:21:53;41.20;;;11.00;;
67757;SDS011;54562;47.620;18.786;2022-10-31T05:25:04;22.40;;;11.00;;
67757;SDS011;54562;47.620;18.786;2022-10-31T05:31:19;26.80;;;10.20;;
67757;SDS011;54562;47.620;18.786;2022-10-31T05:34:27;21.60;;;10.10;;
67757;SDS011;54562;47.620;18.786;2022-10-31T05:37:35;16.90;;;9.40;;
67757;SDS011;54562;47.620;18.786;2022-10-31T05:40:43;24.60;;;10.90;;
67757;SDS011;54562;47.620;18.786;2022-10-31T05:43:52;20.10;;;9.50;;
67757;SDS011;54562;47.620;18.786;2022-10-31T05:47:10;18.20;;;10.00;;
67757;SDS011;54562;47.620;18.786;2022-10-31T05:50:19;17.50;;;8.80;;
67757;SDS011;54562;47.620;18.786;2022-10-31T05:53:27;16.70;;;9.20;;
67757;SDS011;54562;47.620;18.786;2022-10-31T05:56:35;18.00;;;9.20;;
67757;SDS011;54562;47.620;18.786;2022-10-31T05:59:44;14.40;;;8.50;;
67757;SDS011;54562;47.620;18.786;2022-10-31T06:03:02;15.30;;;8.90;;
67757;SDS011;54562;47.620;18.786;2022-10-31T06:06:13;14.70;;;8.80;;
67757;SDS011;54562;47.620;18.786;2022-10-31T06:09:21;17.50;;;9.80;;
67757;SDS011;54562;47.620;18.786;2022-10-31T06:12:29;15.70;;;9.10;;
67757;SDS011;54562;47.620;18.786;2022-10-31T06:15:43;26.40;;;9.60;;
67757;SDS011;54562;47.620;18.786;2022-10-31T06:18:51;15.20;;;9.10;;
67757;SDS011;54562;47.620;18.786;2022-10-31T06:22:02;16.90;;;8.80;;
67757;SDS011;54562;47.620;18.786;2022-10-31T06:25:10;15.20;;;9.20;;
67757;SDS011;54562;47.620;18.786;2022-10-31T06:28:20;15.50;;;8.30;;
67757;SDS011;54562;47.620;18.786;2022-10-31T06:31:33;16.10;;;9.00;;
67757;SDS011;54562;47.620;18.786;2022-10-31T06:34:43;16.00;;;9.50;;
67757;SDS011;54562;47.620;18.786;2022-10-31T06:37:55;15.20;;;8.50;;
67757;SDS011;54562;47.620;18.786;2022-10-31T06:41:12;15.30;;;9.50;;
67757;SDS011;54562;47.620;18.786;2022-10-31T06:44:20;15.40;;;9.40;;
67757;SDS011;54562;47.620;18.786;2022-10-31T06:47:28;15.20;;;9.50;;
67757;SDS011;54562;47.620;18.786;2022-10-31T06:50:45;15.20;;;10.00;;
67757;SDS011;54562;47.620;18.786;2022-10-31T06:53:53;17.60;;;10.10;;
67757;SDS011;54562;47.620;18.786;2022-10-31T06:57:01;23.00;;;11.40;;
67757;SDS011;54562;47.620;18.786;2022-10-31T07:00:12;20.60;;;10.80;;
67757;SDS011;54562;47.620;18.786;2022-10-31T07:03:20;19.90;;;11.20;;
67757;SDS011;54562;47.620;18.786;2022-10-31T07:06:28;16.50;;;9.40;;
67757;SDS011;54562;47.620;18.786;2022-10-31T07:09:39;14.60;;;8.80;;
67757;SDS011;54562;47.620;18.786;2022-10-31T07:13:03;16.80;;;9.10;;
67757;SDS011;54562;47.620;18.786;2022-10-31T07:16:13;18.60;;;9.40;;
67757;SDS011;54562;47.620;18.786;2022-10-31T07:19:20;23.40;;;9.60;;
67757;SDS011;54562;47.620;18.786;2022-10-31T07:22:34;22.10;;;9.60;;
67757;SDS011;54562;47.620;18.786;2022-10-31T07:25:46;22.00;;;9.90;;
67757;SDS011;54562;47.620;18.786;2022-10-31T07:28:54;24.70;;;10.00;;
67757;SDS011;54562;47.620;18.786;2022-10-31T07:32:04;29.00;;;10.10;;
67757;SDS011;54562;47.620;18.786;2022-10-31T07:35:14;45.20;;;9.60;;
67757;SDS011;54562;47.620;18.786;2022-10-31T07:38:24;25.20;;;9.40;;
67757;SDS011;54562;47.620;18.786;2022-10-31T07:41:32;19.60;;;8.90;;
67757;SDS011;54562;47.620;18.786;2022-10-31T07:44:40;54.40;;;9.00;;
67757;SDS011;54562;47.620;18.786;2022-10-31T07:47:50;23.90;;;9.40;;
67757;SDS011;54562;47.620;18.786;2022-10-31T07:50:59;22.80;;;9.20;;
67757;SDS011;54562;47.620;18.786;2022-10-31T07:54:07;15.90;;;8.40;;
67757;SDS011;54562;47.620;18.786;2022-10-31T07:57:16;19.10;;;9.70;;
67757;SDS011;54562;47.620;18.786;2022-10-31T08:00:29;26.10;;;9.80;;
67757;SDS011;54562;47.620;18.786;2022-10-31T08:03:39;16.40;;;9.10;;
67757;SDS011;54562;47.620;18.786;2022-10-31T08:09:54;16.40;;;8.70;;
67757;SDS011;54562;47.620;18.786;2022-10-31T08:13:04;15.80;;;9.10;;
67757;SDS011;54562;47.620;18.786;2022-10-31T08:16:13;15.60;;;8.40;;
67757;SDS011;54562;47.620;18.786;2022-10-31T08:19:21;16.90;;;9.60;;
67757;SDS011;54562;47.620;18.786;2022-10-31T08:22:34;18.10;;;10.00;;
67757;SDS011;54562;47.620;18.786;2022-10-31T08:25:47;16.10;;;9.50;;
67757;SDS011;54562;47.620;18.786;2022-10-31T08:28:55;20.10;;;9.30;;
67757;SDS011;54562;47.620;18.786;2022-10-31T08:32:04;17.70;;;9.50;;
67757;SDS011;54562;47.620;18.786;2022-10-31T08:35:12;17.10;;;9.20;;
67757;SDS011;54562;47.620;18.786;2022-10-31T08:38:20;15.80;;;9.60;;
67757;SDS011;54562;47.620;18.786;2022-10-31T08:41:29;18.20;;;9.50;;
67757;SDS011;54562;47.620;18.786;2022-10-31T08:44:37;17.60;;;9.40;;
67757;SDS011;54562;47.620;18.786;2022-10-31T08:47:45;16.40;;;9.20;;
67757;SDS011;54562;47.620;18.786;2022-10-31T08:50:55;16.90;;;9.70;;
67757;SDS011;54562;47.620;18.786;2022-10-31T08:54:05;16.20;;;9.40;;
67757;SDS011;54562;47.620;18.786;2022-10-31T08:57:12;19.90;;;10.10;;
67757;SDS011;54562;47.620;18.786;2022-10-31T09:00:20;19.30;;;9.70;;
67757;SDS011;54562;47.620;18.786;2022-10-31T09:03:30;19.10;;;10.50;;
67757;SDS011;54562;47.620;18.786;2022-10-31T09:06:38;19.40;;;9.90;;
67757;SDS011;54562;47.620;18.786;2022-10-31T09:10:08;17.30;;;10.00;;
67757;SDS011;54562;47.620;18.786;2022-10-31T09:13:19;17.70;;;10.10;;
67757;SDS011;54562;47.620;18.786;2022-10-31T09:16:31;18.90;;;9.70;;
67757;SDS011;54562;47.620;18.786;2022-10-31T09:19:41;19.40;;;10.60;;
67757;SDS011;54562;47.620;18.786;2022-10-31T09:22:57;19.70;;;10.50;;
67757;SDS011;54562;47.620;18.786;2022-10-31T09:26:06;16.00;;;9.80;;
67757;SDS011;54562;47.620;18.786;2022-10-31T09:29:14;18.20;;;10.20;;
67757;SDS011;54562;47.620;18.786;2022-10-31T09:32:22;18.80;;;10.50;;
67757;SDS011;54562;47.620;18.786;2022-10-31T09:35:30;19.10;;;10.00;;
67757;SDS011;54562;47.620;18.786;2022-10-31T09:38:40;17.60;;;10.00;;
67757;SDS011;54562;47.620;18.786;2022-10-31T09:41:58;17.70;;;10.10;;
67757;SDS011;54562;47.620;18.786;2022-10-31T09:45:18;18.70;;;10.20;;
67757;SDS011;54562;47.620;18.786;2022-10-31T09:48:43;22.80;;;10.10;;
67757;SDS011;54562;47.620;18.786;2022-10-31T09:52:02;20.50;;;10.00;;
67757;SDS011;54562;47.620;18.786;2022-10-31T09:55:21;21.50;;;11.00;;
67757;SDS011;54562;47.620;18.786;2022-10-31T09:58:42;20.70;;;10.60;;
67757;SDS011;54562;47.620;18.786;2022-10-31T10:01:53;20.00;;;10.10;;
67757;SDS011;54562;47.620;18.786;2022-10-31T10:05:09;22.60;;;10.90;;
67757;SDS011;54562;47.620;18.786;2022-10-31T10:08:21;25.70;;;10.90;;
67757;SDS011;54562;47.620;18.786;2022-10-31T10:11:45;19.50;;;10.10;;
67757;SDS011;54562;47.620;18.786;2022-10-31T10:15:27;22.60;;;11.20;;
67757;SDS011;54562;47.620;18.786;2022-10-31T10:18:58;20.70;;;11.00;;
67757;SDS011;54562;47.620;18.786;2022-10-31T10:22:22;21.60;;;11.60;;
67757;SDS011;54562;47.620;18.786;2022-10-31T10:25:39;28.10;;;11.70;;
67757;SDS011;54562;47.620;18.786;2022-10-31T10:28:51;23.60;;;11.60;;
67757;SDS011;54562;47.620;18.786;2022-10-31T10:32:13;24.20;;;12.00;;
67757;SDS011;54562;47.620;18.786;2022-10-31T10:35:29;20.90;;;12.00;;
67757;SDS011;54562;47.620;18.786;2022-10-31T10:38:48;26.90;;;12.00;;
67757;SDS011;54562;47.620;18.786;2022-10-31T10:42:00;21.90;;;11.60;;
67757;SDS011;54562;47.620;18.786;2022-10-31T10:45:31;26.80;;;12.60;;
67757;SDS011;54562;47.620;18.786;2022-10-31T10:49:00;24.70;;;13.80;;
67757;SDS011;54562;47.620;18.786;2022-10-31T10:52:22;32.50;;;13.40;;
67757;SDS011;54562;47.620;18.786;2022-10-31T10:55:55;29.80;;;13.00;;
67757;SDS011;54562;47.620;18.786;2022-10-31T10:59:11;29.50;;;12.80;;
67757;SDS011;54562;47.620;18.786;2022-10-31T11:02:24;27.80;;;13.40;;
67757;SDS011;54562;47.620;18.786;2022-10-31T11:05:39;29.20;;;13.20;;
67757;SDS011;54562;47.620;18.786;2022-10-31T11:08:50;27.40;;;13.30;;
67757;SDS011;54562;47.620;18.786;2022-10-31T11:12:00;34.70;;;15.00;;
67757;SDS011;54562;47.620;18.786;2022-10-31T11:15:22;29.40;;;13.20;;
67757;SDS011;54562;47.620;18.786;2022-10-31T11:18:34;31.00;;;14.30;;
67757;SDS011;54562;47.620;18.786;2022-10-31T11:21:43;32.40;;;14.80;;
67757;SDS011;54562;47.620;18.786;2022-10-31T11:24:57;41.50;;;14.50;;
67757;SDS011;54562;47.620;18.786;2022-10-31T11:28:08;28.70;;;14.70;;
67757;SDS011;54562;47.620;18.786;2022-10-31T11:31:17;29.00;;;14.50;;
67757;SDS011;54562;47.620;18.786;2022-10-31T11:34:33;31.90;;;15.40;;
67757;SDS011;54562;47.620;18.786;2022-10-31T11:37:45;32.10;;;15.20;;
67757;SDS011;54562;47.620;18.786;2022-10-31T11:40:57;34.50;;;15.20;;
67757;SDS011;54562;47.620;18.786;2022-10-31T11:44:21;34.60;;;15.50;;
67757;SDS011;54562;47.620;18.786;2022-10-31T11:47:33;32.50;;;15.30;;
67757;SDS011;54562;47.620;18.786;2022-10-31T11:50:42;34.10;;;15.80;;
67757;SDS011;54562;47.620;18.786;2022-10-31T11:53:58;33.80;;;16.70;;
67757;SDS011;54562;47.620;18.786;2022-10-31T11:57:23;36.80;;;16.60;;
67757;SDS011;54562;47.620;18.786;2022-10-31T12:00:36;38.40;;;16.80;;
67757;SDS011;54562;47.620;18.786;2022-10-31T12:03:57;33.80;;;15.70;;
67757;SDS011;54562;47.620;18.786;2022-10-31T12:07:10;35.80;;;15.80;;
67757;SDS011;54562;47.620;18.786;2022-10-31T12:10:21;38.50;;;18.00;;
67757;SDS011;54562;47.620;18.786;2022-10-31T12:13:51;38.90;;;17.50;;
67757;SDS011;54562;47.620;18.786;2022-10-31T12:17:15;38.90;;;17.10;;
67757;SDS011;54562;47.620;18.786;2022-10-31T12:20:37;42.10;;;17.60;;
67757;SDS011;54562;47.620;18.786;2022-10-31T12:24:05;37.10;;;16.30;;
67757;SDS011;54562;47.620;18.786;2022-10-31T12:27:32;35.70;;;16.10;;
67757;SDS011;54562;47.620;18.786;2022-10-31T12:30:58;41.60;;;16.20;;
67757;SDS011;54562;47.620;18.786;2022-10-31T12:34:47;39.70;;;16.20;;
67757;SDS011;54562;47.620;18.786;2022-10-31T12:42:05;35.40;;;15.70;;
67757;SDS011;54562;47.620;18.786;2022-10-31T12:49:23;36.10;;;14.90;;
67757;SDS011;54562;47.620;18.786;2022-10-31T12:52:48;39.50;;;15.30;;
67757;SDS011;54562;47.620;18.786;2022-10-31T12:56:19;41.40;;;15.30;;
67757;SDS011;54562;47.620;18.786;2022-10-31T12:59:42;32.60;;;15.30;;
67757;SDS011;54562;47.620;18.786;2022-10-31T13:03:00;40.80;;;14.20;;
67757;SDS011;54562;47.620;18.786;2022-10-31T13:06:24;33.80;;;15.00;;
67757;SDS011;54562;47.620;18.786;2022-10-31T13:09:40;38.70;;;14.60;;
67757;SDS011;54562;47.620;18.786;2022-10-31T13:12:53;40.80;;;16.20;;
67757;SDS011;54562;47.620;18.786;2022-10-31T13:16:13;37.60;;;16.90;;
67757;SDS011;54562;47.620;18.786;2022-10-31T13:19:27;36.70;;;16.10;;
67757;SDS011;54562;47.620;18.786;2022-10-31T13:22:39;36.80;;;15.70;;
67757;SDS011;54562;47.620;18.786;2022-10-31T13:25:53;34.10;;;16.50;;
67757;SDS011;54562;47.620;18.786;2022-10-31T13:29:08;34.00;;;16.00;;
67757;SDS011;54562;47.620;18.786;2022-10-31T13:32:23;35.10;;;16.40;;
67757;SDS011;54562;47.620;18.786;2022-10-31T13:35:40;47.60;;;16.40;;
67757;SDS011;54562;47.620;18.786;2022-10-31T13:38:54;36.30;;;15.70;;
67757;SDS011;54562;47.620;18.786;2022-10-31T13:42:14;36.10;;;17.20;;
67757;SDS011;54562;47.620;18.786;2022-10-31T13:45:33;43.10;;;16.40;;
67757;SDS011;54562;47.620;18.786;2022-10-31T13:48:41;40.00;;;16.10;;
67757;SDS011;54562;47.620;18.786;2022-10-31T13:51:50;37.70;;;17.10;;
67757;SDS011;54562;47.620;18.786;2022-10-31T13:54:58;42.40;;;15.80;;
67757;SDS011;54562;47.620;18.786;2022-10-31T13:58:19;36.10;;;15.80;;
67757;SDS011;54562;47.620;18.786;2022-10-31T14:01:31;46.50;;;16.70;;
67757;SDS011;54562;47.620;18.786;2022-10-31T14:07:55;51.40;;;17.30;;
67757;SDS011;54562;47.620;18.786;2022-10-31T14:11:07;46.00;;;18.40;;
67757;SDS011;54562;47.620;18.786;2022-10-31T14:14:46;41.40;;;16.10;;
67757;SDS011;54562;47.620;18.786;2022-10-31T14:18:00;38.00;;;16.60;;
67757;SDS011;54562;47.620;18.786;2022-10-31T14:21:27;40.30;;;15.90;;
67757;SDS011;54562;47.620;18.786;2022-10-31T14:27:51;45.00;;;19.40;;
67757;SDS011;54562;47.620;18.786;2022-10-31T14:34:53;44.40;;;19.60;;
67757;SDS011;54562;47.620;18.786;2022-10-31T14:38:24;37.50;;;18.00;;
67757;SDS011;54562;47.620;18.786;2022-10-31T14:41:51;33.20;;;16.40;;
67757;SDS011;54562;47.620;18.786;2022-10-31T14:45:17;83.50;;;22.30;;
67757;SDS011;54562;47.620;18.786;2022-10-31T14:48:46;55.70;;;17.40;;
67757;SDS011;54562;47.620;18.786;2022-10-31T14:52:11;45.70;;;18.40;;
67757;SDS011;54562;47.620;18.786;2022-10-31T14:55:21;55.20;;;18.90;;
67757;SDS011;54562;47.620;18.786;2022-10-31T14:58:37;91.00;;;17.10;;
67757;SDS011;54562;47.620;18.786;2022-10-31T15:01:55;30.40;;;15.50;;
67757;SDS011;54562;47.620;18.786;2022-10-31T15:05:08;35.20;;;17.40;;
67757;SDS011;54562;47.620;18.786;2022-10-31T15:08:34;34.30;;;17.50;;
67757;SDS011;54562;47.620;18.786;2022-10-31T15:11:44;39.80;;;18.70;;
67757;SDS011;54562;47.620;18.786;2022-10-31T15:14:52;38.10;;;17.20;;
67757;SDS011;54562;47.620;18.786;2022-10-31T15:18:03;35.40;;;17.80;;
67757;SDS011;54562;47.620;18.786;2022-10-31T15:21:12;37.90;;;18.40;;
67757;SDS011;54562;47.620;18.786;2022-10-31T15:24:26;32.90;;;16.60;;
67757;SDS011;54562;47.620;18.786;2022-10-31T15:27:42;34.20;;;18.20;;
67757;SDS011;54562;47.620;18.786;2022-10-31T15:30:55;34.70;;;17.10;;
67757;SDS011;54562;47.620;18.786;2022-10-31T15:34:05;33.70;;;16.80;;
67757;SDS011;54562;47.620;18.786;2022-10-31T15:37:23;32.50;;;16.90;;
67757;SDS011;54562;47.620;18.786;2022-10-31T15:40:32;33.60;;;16.10;;
67757;SDS011;54562;47.620;18.786;2022-10-31T15:43:40;34.90;;;18.10;;
67757;SDS011;54562;47.620;18.786;2022-10-31T15:46:58;32.30;;;17.10;;
67757;SDS011;54562;47.620;18.786;2022-10-31T15:50:21;37.30;;;17.00;;
67757;SDS011;54562;47.620;18.786;2022-10-31T15:53:37;31.30;;;16.60;;
67757;SDS011;54562;47.620;18.786;2022-10-31T15:56:50;36.10;;;19.00;;
67757;SDS011;54562;47.620;18.786;2022-10-31T15:59:59;33.80;;;17.70;;
67757;SDS011;54562;47.620;18.786;2022-10-31T16:03:21;35.20;;;17.60;;
67757;SDS011;54562;47.620;18.786;2022-10-31T16:06:32;34.70;;;17.30;;
67757;SDS011;54562;47.620;18.786;2022-10-31T16:09:50;34.40;;;17.20;;
67757;SDS011;54562;47.620;18.786;2022-10-31T16:13:02;33.10;;;16.00;;
67757;SDS011;54562;47.620;18.786;2022-10-31T16:16:15;32.40;;;17.30;;
67757;SDS011;54562;47.620;18.786;2022-10-31T16:19:47;35.80;;;15.90;;
67757;SDS011;54562;47.620;18.786;2022-10-31T16:22:58;35.20;;;16.10;;
67757;SDS011;54562;47.620;18.786;2022-10-31T16:29:27;33.50;;;14.50;;
67757;SDS011;54562;47.620;18.786;2022-10-31T16:32:54;30.80;;;13.20;;
67757;SDS011;54562;47.620;18.786;2022-10-31T16:36:30;38.10;;;13.70;;
67757;SDS011;54562;47.620;18.786;2022-10-31T16:39:43;44.60;;;16.90;;
67757;SDS011;54562;47.620;18.786;2022-10-31T16:42:51;36.30;;;16.00;;
67757;SDS011;54562;47.620;18.786;2022-10-31T16:45:59;38.80;;;15.10;;
67757;SDS011;54562;47.620;18.786;2022-10-31T16:49:09;31.90;;;15.70;;
67757;SDS011;54562;47.620;18.786;2022-10-31T16:55:24;29.40;;;14.90;;
67757;SDS011;54562;47.620;18.786;2022-10-31T16:58:34;37.00;;;15.30;;
67757;SDS011;54562;47.620;18.786;2022-10-31T17:01:46;33.50;;;17.50;;
67757;SDS011;54562;47.620;18.786;2022-10-31T17:04:56;33.20;;;15.10;;
67757;SDS011;54562;47.620;18.786;2022-10-31T17:08:05;31.10;;;14.50;;
67757;SDS011;54562;47.620;18.786;2022-10-31T17:11:17;34.20;;;17.00;;
67757;SDS011;54562;47.620;18.786;2022-10-31T17:14:28;29.90;;;14.50;;
67757;SDS011;54562;47.620;18.786;2022-10-31T17:17:37;29.40;;;14.90;;
67757;SDS011;54562;47.620;18.786;2022-10-31T17:20:46;40.20;;;16.00;;
67757;SDS011;54562;47.620;18.786;2022-10-31T17:23:54;33.90;;;16.00;;
67757;SDS011;54562;47.620;18.786;2022-10-31T17:27:03;34.10;;;16.40;;
67757;SDS011;54562;47.620;18.786;2022-10-31T17:30:12;29.00;;;14.60;;
67757;SDS011;54562;47.620;18.786;2022-10-31T17:33:26;30.70;;;16.10;;
67757;SDS011;54562;47.620;18.786;2022-10-31T17:36:35;36.40;;;17.10;;
67757;SDS011;54562;47.620;18.786;2022-10-31T17:39:43;33.00;;;16.50;;
67757;SDS011;54562;47.620;18.786;2022-10-31T17:42:53;29.50;;;15.40;;
67757;SDS011;54562;47.620;18.786;2022-10-31T17:46:04;32.20;;;17.00;;
67757;SDS011;54562;47.620;18.786;2022-10-31T17:49:13;43.30;;;18.10;;
67757;SDS011;54562;47.620;18.786;2022-10-31T17:52:21;34.60;;;16.80;;
67757;SDS011;54562;47.620;18.786;2022-10-31T17:55:31;36.50;;;15.20;;
67757;SDS011;54562;47.620;18.786;2022-10-31T17:58:41;32.90;;;16.40;;
67757;SDS011;54562;47.620;18.786;2022-10-31T18:01:50;38.80;;;16.40;;
67757;SDS011;54562;47.620;18.786;2022-10-31T18:04:59;29.70;;;14.00;;
67757;SDS011;54562;47.620;18.786;2022-10-31T18:08:07;35.00;;;16.70;;
67757;SDS011;54562;47.620;18.786;2022-10-31T18:11:18;45.10;;;15.20;;
67757;SDS011;54562;47.620;18.786;2022-10-31T18:14:26;33.00;;;14.80;;
67757;SDS011;54562;47.620;18.786;2022-10-31T18:17:35;41.40;;;14.10;;
67757;SDS011;54562;47.620;18.786;2022-10-31T18:20:46;40.30;;;13.90;;
67757;SDS011;54562;47.620;18.786;2022-10-31T18:23:56;42.50;;;15.60;;
67757;SDS011;54562;47.620;18.786;2022-10-31T18:27:10;42.20;;;14.50;;
67757;SDS011;54562;47.620;18.786;2022-10-31T18:30:21;45.40;;;14.70;;
67757;SDS011;54562;47.620;18.786;2022-10-31T18:33:33;35.50;;;13.90;;
67757;SDS011;54562;47.620;18.786;2022-10-31T18:36:46;39.10;;;14.10;;
67757;SDS011;54562;47.620;18.786;2022-10-31T18:40:01;40.10;;;12.40;;
67757;SDS011;54562;47.620;18.786;2022-10-31T18:43:10;57.30;;;14.80;;
67757;SDS011;54562;47.620;18.786;2022-10-31T18:46:19;40.60;;;11.90;;
67757;SDS011;54562;47.620;18.786;2022-10-31T18:49:27;38.50;;;12.30;;
67757;SDS011;54562;47.620;18.786;2022-10-31T18:52:36;40.80;;;12.90;;
67757;SDS011;54562;47.620;18.786;2022-10-31T18:55:45;43.20;;;12.60;;
67757;SDS011;54562;47.620;18.786;2022-10-31T18:58:53;38.80;;;14.20;;
67757;SDS011;54562;47.620;18.786;2022-10-31T19:02:04;64.60;;;14.00;;
67757;SDS011;54562;47.620;18.786;2022-10-31T19:05:12;44.20;;;12.30;;
67757;SDS011;54562;47.620;18.786;2022-10-31T19:08:21;43.10;;;13.50;;